createdAt,value
2019-05-29T00:02:20.867Z,12.75
2019-05-29T00:04:50.858Z,12.87
2019-05-29T00:07:20.890Z,13.00
2019-05-29T00:09:50.829Z,12.71
2019-05-29T00:12:21.326Z,12.79
2019-05-29T00:14:50.867Z,13.20
2019-05-29T00:17:20.863Z,12.98
2019-05-29T00:19:50.895Z,12.83
2019-05-29T00:22:21.115Z,13.10
2019-05-29T00:24:50.925Z,13.06
2019-05-29T00:27:21.217Z,12.97
2019-05-29T00:29:51.239Z,12.92
2019-05-29T00:32:21.275Z,12.99
2019-05-29T00:34:51.722Z,13.38
2019-05-29T00:37:21.298Z,13.25
2019-05-29T00:39:51.338Z,12.93
2019-05-29T00:42:21.388Z,13.49
2019-05-29T00:44:51.456Z,12.90
2019-05-29T00:47:21.360Z,12.71
2019-05-29T00:49:51.378Z,12.87
2019-05-29T00:52:21.333Z,13.15
2019-05-29T00:54:51.579Z,12.98
2019-05-29T00:57:21.348Z,12.98
2019-05-29T00:59:51.466Z,12.94
2019-05-29T01:02:21.461Z,12.84
2019-05-29T01:04:51.432Z,13.02
2019-05-29T01:07:21.539Z,12.68
2019-05-29T01:09:51.623Z,12.64
2019-05-29T01:12:21.551Z,12.39
2019-05-29T01:14:51.559Z,12.73
2019-05-29T01:17:21.917Z,12.89
2019-05-29T01:19:51.765Z,13.04
2019-05-29T01:22:22.448Z,13.08
2019-05-29T01:24:51.793Z,13.14
2019-05-29T01:27:23.119Z,12.91
2019-05-29T01:29:52.705Z,13.14
2019-05-29T01:32:22.257Z,12.65
2019-05-29T01:34:52.309Z,12.69
2019-05-29T01:37:22.384Z,13.00
2019-05-29T01:39:52.684Z,13.03
2019-05-29T01:42:23.488Z,12.79
2019-05-29T01:45:06.506Z,12.88
2019-05-29T01:47:24.033Z,12.97
2019-05-29T01:49:53.416Z,13.09
2019-05-29T01:52:23.790Z,13.27
2019-05-29T01:54:53.296Z,12.90
2019-05-29T01:57:23.772Z,12.88
2019-05-29T01:59:53.138Z,12.89
2019-05-29T02:02:22.541Z,12.69
2019-05-29T02:04:52.452Z,12.61
2019-05-29T02:07:23.996Z,12.58
2019-05-29T02:09:53.467Z,12.43
2019-05-29T02:12:22.954Z,12.83
2019-05-29T02:14:52.503Z,12.92
2019-05-29T02:17:22.464Z,13.14
2019-05-29T02:19:53.133Z,13.08
2019-05-29T02:22:23.092Z,12.70
2019-05-29T02:24:52.578Z,12.42
2019-05-29T02:27:23.508Z,12.50
2019-05-29T02:29:52.851Z,12.37
2019-05-29T02:32:23.597Z,12.56
2019-05-29T02:34:52.997Z,12.65
2019-05-29T02:37:24.433Z,12.79
2019-05-29T02:39:53.890Z,12.36
2019-05-29T02:42:24.995Z,12.83
2019-05-29T02:44:54.602Z,13.12
2019-05-29T02:47:25.807Z,12.81
2019-05-29T02:49:55.070Z,12.92
2019-05-29T02:52:26.137Z,12.79
2019-05-29T02:54:55.698Z,12.27
2019-05-29T02:57:26.761Z,12.82
2019-05-29T02:59:56.350Z,12.27
2019-05-29T03:02:27.780Z,12.33
2019-05-29T03:04:56.829Z,12.07
2019-05-29T03:07:26.531Z,12.19
2019-05-29T03:09:56.834Z,12.36
2019-05-29T03:12:27.107Z,12.38
2019-05-29T03:14:56.586Z,12.37
2019-05-29T03:17:27.718Z,12.29
2019-05-29T03:19:57.067Z,12.16
2019-05-29T03:22:26.929Z,12.16
2019-05-29T03:24:57.549Z,12.31
2019-05-29T03:27:27.847Z,12.52
2019-05-29T03:29:57.204Z,12.54
2019-05-29T03:32:28.321Z,12.42
2019-05-29T03:34:57.676Z,12.16
2019-05-29T03:37:28.236Z,12.33
2019-05-29T03:39:58.623Z,12.35
2019-05-29T03:42:28.339Z,12.25
2019-05-29T03:44:57.755Z,12.18
2019-05-29T03:47:28.666Z,12.21
2019-05-29T03:49:59.040Z,12.38
2019-05-29T03:52:30.080Z,12.29
2019-05-29T03:54:59.612Z,12.50
2019-05-29T03:57:29.807Z,12.47
2019-05-29T04:00:00.075Z,12.20
2019-05-29T04:02:31.248Z,12.25
2019-05-29T04:05:00.591Z,12.43
2019-05-29T04:07:31.402Z,12.48
2019-05-29T04:10:00.948Z,12.36
2019-05-29T04:12:31.405Z,12.48
2019-05-29T04:15:00.861Z,12.66
2019-05-29T04:17:32.276Z,12.41
2019-05-29T04:20:02.713Z,12.34
2019-05-29T04:22:36.942Z,12.54
2019-05-29T04:25:07.372Z,12.30
2019-05-29T04:27:39.846Z,12.39
2019-05-29T04:30:09.458Z,12.58
2019-05-29T04:32:38.884Z,12.47
2019-05-29T04:35:08.875Z,12.58
2019-05-29T04:37:39.830Z,12.54
2019-05-29T04:40:09.878Z,13.19
2019-05-29T04:42:40.148Z,12.62
2019-05-29T04:45:10.140Z,12.80
2019-05-29T04:47:39.907Z,12.68
2019-05-29T04:50:09.704Z,12.80
2019-05-29T04:52:40.399Z,12.95
2019-05-29T04:55:09.930Z,12.90
2019-05-29T04:57:39.529Z,12.75
2019-05-29T05:00:09.138Z,12.91
2019-05-29T05:02:39.462Z,13.44
2019-05-29T05:05:09.412Z,12.93
2019-05-29T05:07:39.867Z,13.02
2019-05-29T05:10:09.898Z,13.18
2019-05-29T05:12:40.533Z,13.09
2019-05-29T05:15:10.332Z,13.01
2019-05-29T05:17:40.121Z,13.12
2019-05-29T05:20:09.923Z,12.94
2019-05-29T05:22:40.922Z,12.54
2019-05-29T05:25:10.688Z,12.76
2019-05-29T05:27:40.683Z,13.02
2019-05-29T05:30:10.472Z,12.90
2019-05-29T05:32:41.131Z,12.87
2019-05-29T05:35:14.245Z,13.14
2019-05-29T05:37:42.095Z,12.81
2019-05-29T05:40:11.722Z,12.76
2019-05-29T05:42:41.310Z,13.07
2019-05-29T05:45:11.242Z,12.70
2019-05-29T05:47:53.529Z,12.82
2019-05-29T05:50:12.099Z,12.62
2019-05-29T05:52:41.720Z,12.70
2019-05-29T05:55:11.424Z,12.66
2019-05-29T05:57:41.861Z,12.44
2019-05-29T06:00:11.880Z,12.52
2019-05-29T06:02:42.124Z,12.24
2019-05-29T06:05:11.869Z,12.27
2019-05-29T06:07:42.482Z,12.21
2019-05-29T06:10:12.239Z,12.25
2019-05-29T06:12:42.884Z,12.66
2019-05-29T06:15:13.257Z,12.18
2019-05-29T06:18:00.586Z,12.37
2019-05-29T06:20:13.933Z,12.53
2019-05-29T06:22:43.721Z,12.29
2019-05-29T06:25:13.548Z,12.27
2019-05-29T06:27:43.336Z,12.57
2019-05-29T06:30:13.019Z,12.55
2019-05-29T06:32:43.532Z,12.78
2019-05-29T06:35:13.419Z,13.09
2019-05-29T06:37:43.773Z,13.20
2019-05-29T06:40:14.887Z,13.22
2019-05-29T06:42:44.412Z,13.13
2019-05-29T06:45:15.708Z,13.60
2019-05-29T06:47:44.640Z,13.44
2019-05-29T06:50:14.140Z,13.35
2019-05-29T06:52:43.768Z,13.56
2019-05-29T06:55:13.211Z,13.50
2019-05-29T06:57:43.104Z,13.22
2019-05-29T07:00:13.954Z,13.10
2019-05-29T07:02:44.752Z,13.56
2019-05-29T07:05:14.417Z,13.91
2019-05-29T07:07:44.504Z,13.82
2019-05-29T07:10:14.238Z,13.93
2019-05-29T07:12:44.523Z,14.18
2019-05-29T07:15:14.433Z,13.79
2019-05-29T07:17:44.484Z,13.40
2019-05-29T07:20:14.199Z,12.98
2019-05-29T07:22:44.949Z,13.40
2019-05-29T07:25:14.707Z,13.24
2019-05-29T07:27:45.132Z,13.22
2019-05-29T07:30:15.302Z,12.74
2019-05-29T07:32:50.101Z,13.13
2019-05-29T07:35:16.197Z,13.07
2019-05-29T07:37:46.014Z,13.60
2019-05-29T07:40:16.988Z,13.44
2019-05-29T07:42:53.391Z,13.49
2019-05-29T07:45:17.876Z,12.90
2019-05-29T07:47:48.575Z,13.19
2019-05-29T07:50:18.414Z,13.39
2019-05-29T07:52:49.089Z,13.61
2019-05-29T07:55:18.992Z,13.21
2019-05-29T07:57:48.951Z,12.95
2019-05-29T08:00:19.662Z,13.14
2019-05-29T08:02:49.517Z,12.79
2019-05-29T08:05:19.953Z,13.18
2019-05-29T08:07:49.748Z,13.68
2019-05-29T08:10:19.360Z,13.96
2019-05-29T08:12:54.457Z,13.37
2019-05-29T08:15:19.977Z,13.40
2019-05-29T08:17:50.261Z,13.73
2019-05-29T08:20:20.332Z,12.98
2019-05-29T08:22:50.517Z,13.01
2019-05-29T08:25:20.171Z,13.38
2019-05-29T08:27:50.809Z,13.30
2019-05-29T08:30:21.718Z,12.95
2019-05-29T08:32:52.121Z,13.25
2019-05-29T08:35:21.522Z,13.59
2019-05-29T08:37:51.176Z,13.52
2019-05-29T08:40:21.400Z,13.65
2019-05-29T08:42:51.502Z,13.57
2019-05-29T08:45:21.716Z,13.37
2019-05-29T08:47:51.992Z,13.27
2019-05-29T08:50:22.056Z,13.36
2019-05-29T08:52:52.450Z,13.48
2019-05-29T08:55:22.510Z,13.79
2019-05-29T08:57:52.932Z,13.22
2019-05-29T09:00:23.770Z,13.27
2019-05-29T09:02:53.483Z,13.29
2019-05-29T09:05:23.597Z,13.54
2019-05-29T09:07:54.458Z,13.05
2019-05-29T09:10:24.095Z,13.32
2019-05-29T09:13:03.949Z,13.23
2019-05-29T09:15:25.534Z,13.37
2019-05-29T09:17:54.917Z,13.16
2019-05-29T09:20:37.078Z,13.25
2019-05-29T09:22:56.257Z,13.32
2019-05-29T09:25:25.792Z,13.76
2019-05-29T09:27:56.117Z,13.45
2019-05-29T09:30:26.238Z,13.45
2019-05-29T09:32:56.566Z,13.40
2019-05-29T09:35:26.752Z,13.44
2019-05-29T09:37:57.033Z,13.49
2019-05-29T09:40:27.318Z,13.44
2019-05-29T09:42:57.560Z,13.78
2019-05-29T09:45:27.746Z,13.73
2019-05-29T09:47:58.165Z,13.34
2019-05-29T09:50:46.513Z,13.50
2019-05-29T09:53:00.810Z,13.55
2019-05-29T09:55:30.677Z,13.91
2019-05-29T09:58:00.800Z,13.90
2019-05-29T10:00:31.252Z,13.59
2019-05-29T10:03:01.407Z,13.95
2019-05-29T10:05:31.762Z,13.22
2019-05-29T10:08:02.365Z,13.67
2019-05-29T10:10:32.547Z,13.32
2019-05-29T10:13:02.877Z,13.66
2019-05-29T10:15:33.117Z,13.48
2019-05-29T10:18:03.100Z,13.54
2019-05-29T10:20:33.570Z,13.64
2019-05-29T10:23:03.129Z,13.89
2019-05-29T10:25:32.558Z,14.12
2019-05-29T10:28:05.841Z,13.85
2019-05-29T10:30:33.374Z,13.91
2019-05-29T10:33:03.801Z,14.42
2019-05-29T10:35:34.253Z,13.87
2019-05-29T10:38:04.491Z,14.11
2019-05-29T10:40:33.981Z,14.26
2019-05-29T10:43:03.880Z,14.61
2019-05-29T10:45:34.105Z,14.12
2019-05-29T10:48:05.187Z,14.26
2019-05-29T10:50:34.579Z,14.27
2019-05-29T10:53:04.831Z,14.24
2019-05-29T10:55:34.860Z,14.52
2019-05-29T10:58:05.302Z,14.23
2019-05-29T11:00:38.734Z,15.08
2019-05-29T11:03:06.467Z,15.25
2019-05-29T11:05:35.858Z,14.64
2019-05-29T11:08:06.182Z,15.10
2019-05-29T11:10:36.579Z,14.63
2019-05-29T11:13:06.723Z,14.49
2019-05-29T11:15:36.975Z,14.53
2019-05-29T11:18:07.220Z,14.73
2019-05-29T11:20:37.369Z,14.32
2019-05-29T11:23:07.736Z,14.28
2019-05-29T11:25:37.882Z,14.57
2019-05-29T11:28:08.337Z,14.88
2019-05-29T11:30:38.430Z,14.38
2019-05-29T11:33:08.828Z,14.49
2019-05-29T11:35:54.862Z,14.68
2019-05-29T11:38:09.973Z,14.81
2019-05-29T11:40:39.677Z,15.31
2019-05-29T11:43:09.736Z,14.92
2019-05-29T11:45:39.984Z,14.62
2019-05-29T11:48:10.409Z,14.60
2019-05-29T11:50:40.488Z,15.02
2019-05-29T11:53:10.699Z,14.71
2019-05-29T11:55:40.900Z,13.99
2019-05-29T11:58:11.151Z,14.65
2019-05-29T12:00:41.485Z,14.61
2019-05-29T12:03:11.937Z,14.35
2019-05-29T12:05:41.871Z,14.35
2019-05-29T12:08:12.264Z,14.41
2019-05-29T12:10:42.558Z,14.49
2019-05-29T12:13:12.824Z,14.56
2019-05-29T12:15:42.934Z,14.38
2019-05-29T12:18:23.705Z,14.78
2019-05-29T12:20:44.564Z,14.36
2019-05-29T12:23:26.008Z,14.50
2019-05-29T12:25:45.110Z,14.48
2019-05-29T12:28:14.493Z,14.34
2019-05-29T12:30:44.556Z,14.93
2019-05-29T12:33:14.978Z,14.27
2019-05-29T12:35:45.021Z,14.42
2019-05-29T12:38:15.285Z,14.08
2019-05-29T12:40:45.497Z,14.28
2019-05-29T12:43:26.671Z,14.32
2019-05-29T12:45:46.849Z,14.10
2019-05-29T12:48:17.570Z,14.09
2019-05-29T12:50:47.101Z,14.11
2019-05-29T12:53:29.820Z,14.02
2019-05-29T12:55:47.944Z,13.89
2019-05-29T12:58:17.326Z,13.91
2019-05-29T13:00:47.363Z,14.05
2019-05-29T13:03:17.715Z,14.04
2019-05-29T13:05:47.876Z,13.77
2019-05-29T13:08:18.257Z,13.85
2019-05-29T13:10:49.537Z,13.43
2019-05-29T13:13:18.937Z,13.72
2019-05-29T13:15:48.903Z,14.06
2019-05-29T13:18:19.185Z,13.72
2019-05-29T13:20:49.408Z,13.50
2019-05-29T13:23:19.727Z,13.49
2019-05-29T13:25:49.932Z,13.89
2019-05-29T13:28:20.201Z,13.98
2019-05-29T13:30:50.400Z,13.79
2019-05-29T13:33:20.853Z,14.48
2019-05-29T13:35:50.904Z,13.86
2019-05-29T13:38:21.120Z,14.29
2019-05-29T13:40:51.617Z,14.26
2019-05-29T13:43:21.658Z,13.86
2019-05-29T13:45:51.904Z,13.90
2019-05-29T13:48:23.500Z,13.69
2019-05-29T13:50:52.994Z,13.50
2019-05-29T13:53:22.500Z,13.74
2019-05-29T13:55:52.643Z,13.71
2019-05-29T13:58:22.966Z,13.78
2019-05-29T14:00:53.864Z,14.11
2019-05-29T14:03:23.441Z,14.27
2019-05-29T14:05:53.650Z,14.14
2019-05-29T14:08:24.210Z,13.91
2019-05-29T14:10:54.185Z,13.67
2019-05-29T14:13:24.553Z,13.79
2019-05-29T14:15:54.714Z,13.98
2019-05-29T14:18:24.976Z,13.86
2019-05-29T14:20:55.187Z,14.21
2019-05-29T14:23:25.606Z,13.72
2019-05-29T14:25:55.914Z,13.51
2019-05-29T14:28:26.180Z,13.70
2019-05-29T14:30:56.225Z,13.79
2019-05-29T14:33:26.631Z,13.41
2019-05-29T14:35:56.831Z,13.40
2019-05-29T14:38:27.243Z,13.38
2019-05-29T14:40:57.306Z,13.84
2019-05-29T14:43:27.634Z,13.74
2019-05-29T14:45:57.937Z,13.81
2019-05-29T14:48:28.237Z,14.06
2019-05-29T14:50:58.407Z,13.43
2019-05-29T14:53:28.869Z,13.51
2019-05-29T14:55:58.923Z,13.64
2019-05-29T14:58:29.333Z,13.23
2019-05-29T15:00:59.405Z,13.87
2019-05-29T15:03:29.743Z,13.65
2019-05-29T15:05:59.909Z,13.64
2019-05-29T15:08:30.222Z,13.48
2019-05-29T15:11:00.429Z,14.04
2019-05-29T15:13:30.752Z,13.32
2019-05-29T15:16:01.028Z,13.35
2019-05-29T15:18:31.348Z,13.48
2019-05-29T15:21:01.494Z,13.31
2019-05-29T15:23:31.938Z,13.69
2019-05-29T15:26:01.967Z,13.39
2019-05-29T15:28:32.353Z,13.15
2019-05-29T15:31:02.816Z,13.18
2019-05-29T15:33:32.758Z,13.31
2019-05-29T15:36:02.989Z,13.46
2019-05-29T15:38:33.331Z,13.40
2019-05-29T15:41:03.467Z,12.90
2019-05-29T15:43:33.851Z,12.85
2019-05-29T15:46:04.096Z,13.15
2019-05-29T15:48:34.307Z,13.17
2019-05-29T15:51:04.686Z,12.77
2019-05-29T15:53:34.865Z,12.92
2019-05-29T15:56:18.036Z,12.74
2019-05-29T15:58:37.026Z,12.73
2019-05-29T16:01:07.637Z,12.73
2019-05-29T16:03:37.209Z,13.12
2019-05-29T16:06:07.695Z,12.69
2019-05-29T16:08:37.210Z,13.09
2019-05-29T16:11:08.600Z,12.89
2019-05-29T16:13:38.052Z,12.49
2019-05-29T16:16:07.449Z,12.71
2019-05-29T16:18:38.400Z,12.75
2019-05-29T16:21:07.786Z,13.16
2019-05-29T16:23:37.445Z,12.91
2019-05-29T16:26:07.488Z,12.68
2019-05-29T16:28:38.841Z,12.60
2019-05-29T16:31:08.224Z,12.81
2019-05-29T16:33:37.708Z,12.84
2019-05-29T16:36:07.657Z,13.09
2019-05-29T16:38:37.565Z,12.87
2019-05-29T16:41:07.659Z,12.94
2019-05-29T16:43:37.718Z,12.56
2019-05-29T16:46:07.762Z,12.38
2019-05-29T16:48:38.771Z,12.61
2019-05-29T16:51:08.922Z,12.66
2019-05-29T16:53:39.320Z,12.49
2019-05-29T16:56:08.856Z,12.24
2019-05-29T16:58:38.909Z,12.26
2019-05-29T17:01:09.120Z,12.51
2019-05-29T17:03:39.570Z,12.73
2019-05-29T17:06:09.694Z,12.45
2019-05-29T17:08:39.889Z,12.48
2019-05-29T17:11:09.806Z,12.55
2019-05-29T17:13:39.542Z,12.28
2019-05-29T17:16:09.572Z,12.81
2019-05-29T17:18:40.086Z,12.57
2019-05-29T17:21:10.133Z,12.69
2019-05-29T17:23:39.513Z,12.47
2019-05-29T17:26:11.015Z,12.79
2019-05-29T17:28:41.075Z,13.22
2019-05-29T17:31:11.109Z,12.71
2019-05-29T17:33:41.390Z,12.66
2019-05-29T17:36:11.631Z,13.16
2019-05-29T17:38:42.170Z,12.39
2019-05-29T17:41:12.363Z,12.21
2019-05-29T17:43:42.717Z,12.07
2019-05-29T17:46:12.655Z,12.13
2019-05-29T17:48:42.039Z,11.95
2019-05-29T17:51:11.566Z,12.21
2019-05-29T17:53:41.135Z,12.15
2019-05-29T17:56:25.321Z,12.05
2019-05-29T17:58:41.775Z,11.89
2019-05-29T18:01:11.176Z,11.79
2019-05-29T18:03:40.657Z,11.82
2019-05-29T18:06:10.110Z,11.60
2019-05-29T18:08:40.469Z,11.54
2019-05-29T18:11:09.999Z,11.37
2019-05-29T18:13:39.448Z,11.49
2019-05-29T18:16:08.925Z,11.41
2019-05-29T18:18:38.891Z,11.56
2019-05-29T18:21:09.038Z,11.43
2019-05-29T18:23:39.202Z,12.01
2019-05-29T18:26:09.029Z,11.51
2019-05-29T18:28:39.048Z,11.93
2019-05-29T18:31:09.637Z,11.76
2019-05-29T18:33:39.263Z,11.91
2019-05-29T18:36:09.232Z,12.12
2019-05-29T18:38:40.103Z,11.39
2019-05-29T18:41:09.903Z,11.25
2019-05-29T18:43:39.443Z,11.84
2019-05-29T18:46:09.395Z,11.82
2019-05-29T18:48:39.427Z,11.34
2019-05-29T18:51:09.539Z,11.55
2019-05-29T18:53:39.645Z,11.76
2019-05-29T18:56:09.613Z,11.50
2019-05-29T18:58:39.678Z,11.65
2019-05-29T19:01:10.457Z,11.07
2019-05-29T19:03:40.629Z,11.23
2019-05-29T19:06:11.285Z,11.30
2019-05-29T19:08:40.694Z,11.47
2019-05-29T19:11:10.621Z,11.69
2019-05-29T19:13:40.637Z,11.86
2019-05-29T19:16:10.558Z,11.09
2019-05-29T19:18:40.578Z,11.29
2019-05-29T19:21:10.744Z,11.16
2019-05-29T19:23:40.736Z,11.53
2019-05-29T19:26:10.896Z,11.39
2019-05-29T19:28:41.359Z,10.91
2019-05-29T19:31:10.845Z,11.45
2019-05-29T19:33:40.900Z,11.12
2019-05-29T19:36:10.879Z,10.82
2019-05-29T19:38:40.967Z,10.85
2019-05-29T19:41:11.009Z,10.94
2019-05-29T19:43:41.174Z,12.02
2019-05-29T19:46:11.112Z,11.24
2019-05-29T19:48:41.097Z,11.04
2019-05-29T19:51:11.240Z,11.12
2019-05-29T19:53:41.583Z,10.74
2019-05-29T19:56:11.231Z,11.05
2019-05-29T19:58:41.189Z,10.95
2019-05-29T20:01:11.273Z,10.70
2019-05-29T20:03:41.278Z,10.64
2019-05-29T20:06:11.735Z,10.80
2019-05-29T20:08:41.322Z,10.96
2019-05-29T20:11:11.461Z,10.96
2019-05-29T20:13:41.452Z,11.25
2019-05-29T20:16:11.884Z,11.18
2019-05-29T20:18:42.336Z,11.01
2019-05-29T20:21:11.723Z,11.23
2019-05-29T20:23:41.830Z,11.18
2019-05-29T20:26:11.560Z,10.94
2019-05-29T20:28:42.557Z,11.12
2019-05-29T20:31:12.340Z,11.13
2019-05-29T20:33:42.742Z,10.86
2019-05-29T20:36:12.136Z,10.83
2019-05-29T20:38:41.726Z,10.77
2019-05-29T20:41:11.761Z,10.73
2019-05-29T20:43:41.943Z,10.72
2019-05-29T20:46:11.833Z,11.01
2019-05-29T20:48:42.747Z,11.19
2019-05-29T20:51:12.554Z,11.09
2019-05-29T20:53:42.137Z,11.28
2019-05-29T20:56:11.924Z,11.36
2019-05-29T20:58:43.034Z,11.34
2019-05-29T21:01:12.413Z,10.94
2019-05-29T21:03:42.573Z,11.23
2019-05-29T21:06:12.257Z,10.83
2019-05-29T21:08:43.348Z,10.81
2019-05-29T21:11:12.812Z,10.99
2019-05-29T21:13:43.577Z,10.53
2019-05-29T21:16:13.344Z,10.81
2019-05-29T21:18:44.047Z,10.65
2019-05-29T21:21:13.510Z,10.56
2019-05-29T21:23:42.898Z,10.64
2019-05-29T21:26:12.441Z,10.57
2019-05-29T21:28:47.017Z,10.45
2019-05-29T21:31:13.581Z,10.68
2019-05-29T21:33:46.951Z,10.55
2019-05-29T21:36:14.126Z,10.80
2019-05-29T21:38:44.316Z,10.41
2019-05-29T21:41:13.663Z,10.70
2019-05-29T21:43:43.040Z,10.64
2019-05-29T21:46:12.971Z,10.45
2019-05-29T21:48:43.356Z,10.62
2019-05-29T21:51:12.844Z,10.80
2019-05-29T21:53:43.427Z,10.69
2019-05-29T21:56:13.005Z,10.83
2019-05-29T21:58:59.924Z,11.11
2019-05-29T22:01:14.985Z,11.00
2019-05-29T22:03:44.590Z,10.99
2019-05-29T22:06:14.421Z,10.97
2019-05-29T22:08:44.966Z,10.87
2019-05-29T22:11:14.632Z,10.94
2019-05-29T22:13:46.263Z,10.89
2019-05-29T22:16:15.426Z,10.88
2019-05-29T22:18:44.786Z,11.17
2019-05-29T22:21:14.326Z,10.90
2019-05-29T22:23:43.717Z,11.08
2019-05-29T22:26:13.307Z,10.94
2019-05-29T22:28:43.348Z,10.94
2019-05-29T22:31:12.764Z,10.76
2019-05-29T22:33:42.138Z,10.92
2019-05-29T22:36:12.072Z,11.30
2019-05-29T22:38:41.488Z,11.25
2019-05-29T22:41:10.980Z,10.92
2019-05-29T22:43:40.539Z,11.04
2019-05-29T22:46:09.957Z,11.22
2019-05-29T22:48:39.417Z,10.98
2019-05-29T22:51:08.895Z,11.14
2019-05-29T22:53:38.377Z,10.62
2019-05-29T22:56:08.151Z,10.82
2019-05-29T22:58:37.650Z,10.71
2019-05-29T23:01:07.105Z,10.80
2019-05-29T23:03:36.636Z,10.98
2019-05-29T23:06:06.077Z,10.66
2019-05-29T23:08:35.447Z,10.63
2019-05-29T23:11:04.996Z,10.80
2019-05-29T23:13:34.413Z,10.53
2019-05-29T23:16:03.940Z,10.62
2019-05-29T23:18:33.389Z,10.67
2019-05-29T23:21:02.864Z,10.57
2019-05-29T23:23:32.254Z,10.50
2019-05-29T23:26:02.997Z,10.50
2019-05-29T23:28:32.868Z,10.81
2019-05-29T23:31:03.047Z,10.78
2019-05-29T23:33:32.504Z,10.49
2019-05-29T23:36:03.170Z,10.42
2019-05-29T23:38:32.640Z,10.60
2019-05-29T23:41:02.054Z,10.67
2019-05-29T23:43:31.423Z,10.51
2019-05-29T23:46:02.444Z,10.62
2019-05-29T23:48:32.220Z,10.41
2019-05-29T23:51:01.780Z,10.34
2019-05-29T23:53:31.160Z,10.36
2019-05-29T23:56:01.792Z,10.87
2019-05-29T23:58:31.247Z,11.41
